sensor_id;sensor_type;location;lat;lon;timestamp;temperature;humidity
15609;DHT22;64278;45.642;13.756;2023-03-31T00:01:37;22.70;58.50
15609;DHT22;64278;45.642;13.756;2023-03-31T00:04:09;22.70;58.50
15609;DHT22;64278;45.642;13.756;2023-03-31T00:06:38;22.70;58.50
15609;DHT22;64278;45.642;13.756;2023-03-31T00:11:33;22.70;58.60
15609;DHT22;64278;45.642;13.756;2023-03-31T00:13:58;22.70;58.60
15609;DHT22;64278;45.642;13.756;2023-03-31T00:16:24;22.70;58.60
15609;DHT22;64278;45.642;13.756;2023-03-31T00:18:51;22.70;58.60
15609;DHT22;64278;45.642;13.756;2023-03-31T00:21:21;22.70;58.70
15609;DHT22;64278;45.642;13.756;2023-03-31T00:23:56;22.70;58.70
15609;DHT22;64278;45.642;13.756;2023-03-31T00:26:23;22.70;58.70
15609;DHT22;64278;45.642;13.756;2023-03-31T00:28:49;22.70;58.70
15609;DHT22;64278;45.642;13.756;2023-03-31T00:31:15;22.70;58.70
15609;DHT22;64278;45.642;13.756;2023-03-31T00:33:41;22.70;58.70
15609;DHT22;64278;45.642;13.756;2023-03-31T00:36:07;22.70;58.70
15609;DHT22;64278;45.642;13.756;2023-03-31T00:38:33;22.70;58.70
15609;DHT22;64278;45.642;13.756;2023-03-31T00:40:59;22.70;58.80
15609;DHT22;64278;45.642;13.756;2023-03-31T00:43:32;22.70;58.80
15609;DHT22;64278;45.642;13.756;2023-03-31T00:48:33;22.60;58.80
15609;DHT22;64278;45.642;13.756;2023-03-31T00:51:03;22.60;58.80
15609;DHT22;64278;45.642;13.756;2023-03-31T00:53:31;22.60;58.80
15609;DHT22;64278;45.642;13.756;2023-03-31T00:56:01;22.60;58.80
15609;DHT22;64278;45.642;13.756;2023-03-31T00:58:29;22.60;58.90
15609;DHT22;64278;45.642;13.756;2023-03-31T01:00:59;22.70;58.90
15609;DHT22;64278;45.642;13.756;2023-03-31T01:03:28;22.70;58.90
15609;DHT22;64278;45.642;13.756;2023-03-31T01:06:04;22.60;58.80
15609;DHT22;64278;45.642;13.756;2023-03-31T01:08:32;22.60;58.90
15609;DHT22;64278;45.642;13.756;2023-03-31T01:11:06;22.60;58.80
15609;DHT22;64278;45.642;13.756;2023-03-31T01:13:36;22.60;58.80
15609;DHT22;64278;45.642;13.756;2023-03-31T01:16:03;22.60;58.70
15609;DHT22;64278;45.642;13.756;2023-03-31T01:18:28;22.60;58.70
15609;DHT22;64278;45.642;13.756;2023-03-31T01:24:17;22.60;58.70
15609;DHT22;64278;45.642;13.756;2023-03-31T01:41:47;22.60;58.70
15609;DHT22;64278;45.642;13.756;2023-03-31T01:47:15;22.50;58.70
15609;DHT22;64278;45.642;13.756;2023-03-31T01:49:56;22.50;58.60
15609;DHT22;64278;45.642;13.756;2023-03-31T01:52:51;22.50;58.60
15609;DHT22;64278;45.642;13.756;2023-03-31T01:57:59;22.50;58.70
15609;DHT22;64278;45.642;13.756;2023-03-31T02:00:30;22.50;58.70
15609;DHT22;64278;45.642;13.756;2023-03-31T02:03:14;22.50;58.70
15609;DHT22;64278;45.642;13.756;2023-03-31T02:05:56;22.50;58.80
15609;DHT22;64278;45.642;13.756;2023-03-31T02:08:46;22.50;58.80
15609;DHT22;64278;45.642;13.756;2023-03-31T02:11:10;22.50;58.80
15609;DHT22;64278;45.642;13.756;2023-03-31T02:13:38;22.50;58.70
15609;DHT22;64278;45.642;13.756;2023-03-31T02:16:08;22.50;58.70
15609;DHT22;64278;45.642;13.756;2023-03-31T02:18:37;22.50;58.70
15609;DHT22;64278;45.642;13.756;2023-03-31T02:21:06;22.50;58.70
15609;DHT22;64278;45.642;13.756;2023-03-31T02:23:36;22.50;58.80
15609;DHT22;64278;45.642;13.756;2023-03-31T02:26:06;22.50;58.70
15609;DHT22;64278;45.642;13.756;2023-03-31T02:28:34;22.50;58.70
15609;DHT22;64278;45.642;13.756;2023-03-31T02:33:50;22.50;58.70
15609;DHT22;64278;45.642;13.756;2023-03-31T02:36:16;22.50;58.70
15609;DHT22;64278;45.642;13.756;2023-03-31T02:38:46;22.40;58.70
15609;DHT22;64278;45.642;13.756;2023-03-31T02:41:13;22.40;58.70
15609;DHT22;64278;45.642;13.756;2023-03-31T02:43:38;22.50;58.70
15609;DHT22;64278;45.642;13.756;2023-03-31T02:46:04;22.50;58.80
15609;DHT22;64278;45.642;13.756;2023-03-31T02:48:34;22.50;58.70
15609;DHT22;64278;45.642;13.756;2023-03-31T03:02:05;22.40;58.60
15609;DHT22;64278;45.642;13.756;2023-03-31T03:08:11;22.40;58.70
15609;DHT22;64278;45.642;13.756;2023-03-31T03:10:09;22.40;58.60
15609;DHT22;64278;45.642;13.756;2023-03-31T03:13:08;22.40;58.60
15609;DHT22;64278;45.642;13.756;2023-03-31T03:15:46;22.40;58.60
15609;DHT22;64278;45.642;13.756;2023-03-31T03:18:13;22.40;58.60
15609;DHT22;64278;45.642;13.756;2023-03-31T03:20:41;22.40;58.60
15609;DHT22;64278;45.642;13.756;2023-03-31T03:23:07;22.40;58.60
15609;DHT22;64278;45.642;13.756;2023-03-31T03:25:33;22.40;58.60
15609;DHT22;64278;45.642;13.756;2023-03-31T03:27:59;22.40;58.60
15609;DHT22;64278;45.642;13.756;2023-03-31T03:43:44;22.40;58.50
15609;DHT22;64278;45.642;13.756;2023-03-31T03:46:10;22.30;58.50
15609;DHT22;64278;45.642;13.756;2023-03-31T03:48:36;22.30;58.40
15609;DHT22;64278;45.642;13.756;2023-03-31T03:51:01;22.30;58.40
15609;DHT22;64278;45.642;13.756;2023-03-31T03:53:27;22.30;58.40
15609;DHT22;64278;45.642;13.756;2023-03-31T03:55:53;22.30;58.40
15609;DHT22;64278;45.642;13.756;2023-03-31T03:58:19;22.40;58.50
15609;DHT22;64278;45.642;13.756;2023-03-31T04:00:45;22.40;58.50
15609;DHT22;64278;45.642;13.756;2023-03-31T04:03:11;22.30;58.40
15609;DHT22;64278;45.642;13.756;2023-03-31T04:05:37;22.30;58.40
15609;DHT22;64278;45.642;13.756;2023-03-31T04:08:03;22.30;58.40
15609;DHT22;64278;45.642;13.756;2023-03-31T04:10:30;22.30;58.40
15609;DHT22;64278;45.642;13.756;2023-03-31T04:12:56;22.30;58.40
15609;DHT22;64278;45.642;13.756;2023-03-31T04:15:22;22.40;58.40
15609;DHT22;64278;45.642;13.756;2023-03-31T04:17:47;22.40;58.30
15609;DHT22;64278;45.642;13.756;2023-03-31T04:20:16;22.40;58.20
15609;DHT22;64278;45.642;13.756;2023-03-31T04:22:42;22.50;58.10
15609;DHT22;64278;45.642;13.756;2023-03-31T04:25:12;22.50;58.00
15609;DHT22;64278;45.642;13.756;2023-03-31T04:27:44;22.50;57.70
15609;DHT22;64278;45.642;13.756;2023-03-31T04:30:23;22.50;57.70
15609;DHT22;64278;45.642;13.756;2023-03-31T04:32:51;22.50;57.70
15609;DHT22;64278;45.642;13.756;2023-03-31T04:35:18;22.60;57.70
15609;DHT22;64278;45.642;13.756;2023-03-31T04:37:49;22.60;57.60
15609;DHT22;64278;45.642;13.756;2023-03-31T04:40:15;22.50;57.30
15609;DHT22;64278;45.642;13.756;2023-03-31T04:42:43;22.60;57.30
15609;DHT22;64278;45.642;13.756;2023-03-31T04:45:12;22.60;57.40
15609;DHT22;64278;45.642;13.756;2023-03-31T04:47:38;22.70;57.70
15609;DHT22;64278;45.642;13.756;2023-03-31T04:50:04;22.70;58.10
15609;DHT22;64278;45.642;13.756;2023-03-31T04:52:30;22.70;58.20
15609;DHT22;64278;45.642;13.756;2023-03-31T04:54:55;22.80;58.50
15609;DHT22;64278;45.642;13.756;2023-03-31T04:57:21;22.80;58.50
15609;DHT22;64278;45.642;13.756;2023-03-31T04:59:47;22.80;58.40
15609;DHT22;64278;45.642;13.756;2023-03-31T05:02:12;22.80;58.30
15609;DHT22;64278;45.642;13.756;2023-03-31T05:04:38;22.80;58.10
15609;DHT22;64278;45.642;13.756;2023-03-31T05:07:04;22.80;58.00
15609;DHT22;64278;45.642;13.756;2023-03-31T05:09:29;22.80;57.90
15609;DHT22;64278;45.642;13.756;2023-03-31T05:11:56;22.80;57.90
15609;DHT22;64278;45.642;13.756;2023-03-31T05:14:22;22.80;57.80
15609;DHT22;64278;45.642;13.756;2023-03-31T05:16:48;22.90;57.80
15609;DHT22;64278;45.642;13.756;2023-03-31T05:19:13;22.90;57.70
15609;DHT22;64278;45.642;13.756;2023-03-31T05:21:39;22.90;57.70
15609;DHT22;64278;45.642;13.756;2023-03-31T05:24:05;22.90;57.70
15609;DHT22;64278;45.642;13.756;2023-03-31T05:26:30;22.90;57.70
15609;DHT22;64278;45.642;13.756;2023-03-31T05:28:56;22.90;57.70
15609;DHT22;64278;45.642;13.756;2023-03-31T05:31:22;22.90;57.70
15609;DHT22;64278;45.642;13.756;2023-03-31T05:33:48;22.90;57.60
15609;DHT22;64278;45.642;13.756;2023-03-31T05:36:16;22.90;57.60
15609;DHT22;64278;45.642;13.756;2023-03-31T05:38:42;22.90;57.60
15609;DHT22;64278;45.642;13.756;2023-03-31T05:41:09;22.90;57.60
15609;DHT22;64278;45.642;13.756;2023-03-31T05:43:36;22.90;57.50
15609;DHT22;64278;45.642;13.756;2023-03-31T05:46:02;22.90;57.50
15609;DHT22;64278;45.642;13.756;2023-03-31T05:48:28;22.80;57.40
15609;DHT22;64278;45.642;13.756;2023-03-31T05:50:58;22.80;57.40
15609;DHT22;64278;45.642;13.756;2023-03-31T05:53:25;22.80;57.30
15609;DHT22;64278;45.642;13.756;2023-03-31T05:55:56;22.80;57.30
15609;DHT22;64278;45.642;13.756;2023-03-31T05:58:22;22.80;57.30
15609;DHT22;64278;45.642;13.756;2023-03-31T06:00:48;22.80;57.30
15609;DHT22;64278;45.642;13.756;2023-03-31T06:03:14;22.80;57.20
15609;DHT22;64278;45.642;13.756;2023-03-31T06:05:46;22.80;57.10
15609;DHT22;64278;45.642;13.756;2023-03-31T06:08:12;22.80;57.10
15609;DHT22;64278;45.642;13.756;2023-03-31T06:10:37;22.90;57.10
15609;DHT22;64278;45.642;13.756;2023-03-31T06:13:03;22.80;57.00
15609;DHT22;64278;45.642;13.756;2023-03-31T06:15:29;22.80;57.00
15609;DHT22;64278;45.642;13.756;2023-03-31T06:17:54;22.80;57.00
15609;DHT22;64278;45.642;13.756;2023-03-31T06:20:20;22.90;57.00
15609;DHT22;64278;45.642;13.756;2023-03-31T06:22:46;22.80;56.90
15609;DHT22;64278;45.642;13.756;2023-03-31T06:25:11;22.80;56.90
15609;DHT22;64278;45.642;13.756;2023-03-31T06:27:37;22.80;56.90
15609;DHT22;64278;45.642;13.756;2023-03-31T06:30:03;22.80;56.90
15609;DHT22;64278;45.642;13.756;2023-03-31T06:32:29;22.80;56.90
15609;DHT22;64278;45.642;13.756;2023-03-31T06:34:54;22.80;56.90
15609;DHT22;64278;45.642;13.756;2023-03-31T06:37:20;22.80;56.90
15609;DHT22;64278;45.642;13.756;2023-03-31T06:39:45;22.80;56.90
15609;DHT22;64278;45.642;13.756;2023-03-31T06:42:11;22.80;56.90
15609;DHT22;64278;45.642;13.756;2023-03-31T06:44:37;22.80;56.90
15609;DHT22;64278;45.642;13.756;2023-03-31T06:47:02;22.80;56.90
15609;DHT22;64278;45.642;13.756;2023-03-31T06:49:28;22.80;56.90
15609;DHT22;64278;45.642;13.756;2023-03-31T06:51:54;22.80;56.90
15609;DHT22;64278;45.642;13.756;2023-03-31T06:54:19;22.80;56.90
15609;DHT22;64278;45.642;13.756;2023-03-31T06:56:45;22.70;56.90
15609;DHT22;64278;45.642;13.756;2023-03-31T06:59:11;22.70;56.90
15609;DHT22;64278;45.642;13.756;2023-03-31T07:01:36;22.70;56.90
15609;DHT22;64278;45.642;13.756;2023-03-31T07:04:03;22.70;56.90
15609;DHT22;64278;45.642;13.756;2023-03-31T07:06:29;22.70;56.90
15609;DHT22;64278;45.642;13.756;2023-03-31T07:08:55;22.70;56.80
15609;DHT22;64278;45.642;13.756;2023-03-31T07:11:21;22.70;56.90
15609;DHT22;64278;45.642;13.756;2023-03-31T07:13:47;22.70;56.90
15609;DHT22;64278;45.642;13.756;2023-03-31T07:16:12;22.70;56.90
15609;DHT22;64278;45.642;13.756;2023-03-31T07:18:38;22.70;56.90
15609;DHT22;64278;45.642;13.756;2023-03-31T07:21:06;22.70;56.90
15609;DHT22;64278;45.642;13.756;2023-03-31T07:23:33;22.70;56.90
15609;DHT22;64278;45.642;13.756;2023-03-31T07:25:58;22.70;56.90
15609;DHT22;64278;45.642;13.756;2023-03-31T07:28:27;22.70;56.90
15609;DHT22;64278;45.642;13.756;2023-03-31T07:30:53;22.70;56.90
15609;DHT22;64278;45.642;13.756;2023-03-31T07:33:19;22.60;56.90
15609;DHT22;64278;45.642;13.756;2023-03-31T07:35:45;22.60;56.90
15609;DHT22;64278;45.642;13.756;2023-03-31T07:38:11;22.60;56.90
15609;DHT22;64278;45.642;13.756;2023-03-31T07:40:38;22.60;56.90
15609;DHT22;64278;45.642;13.756;2023-03-31T07:43:04;22.60;56.90
15609;DHT22;64278;45.642;13.756;2023-03-31T07:45:30;22.60;56.90
15609;DHT22;64278;45.642;13.756;2023-03-31T07:47:56;22.60;56.90
15609;DHT22;64278;45.642;13.756;2023-03-31T07:50:22;22.60;56.90
15609;DHT22;64278;45.642;13.756;2023-03-31T07:52:48;22.60;56.90
15609;DHT22;64278;45.642;13.756;2023-03-31T07:55:14;22.60;56.90
15609;DHT22;64278;45.642;13.756;2023-03-31T07:57:41;22.60;56.90
15609;DHT22;64278;45.642;13.756;2023-03-31T08:00:08;22.60;56.80
15609;DHT22;64278;45.642;13.756;2023-03-31T08:02:37;22.60;56.80
15609;DHT22;64278;45.642;13.756;2023-03-31T08:05:04;22.60;56.80
15609;DHT22;64278;45.642;13.756;2023-03-31T08:07:33;22.60;56.80
15609;DHT22;64278;45.642;13.756;2023-03-31T08:09:59;22.50;56.70
15609;DHT22;64278;45.642;13.756;2023-03-31T08:12:25;22.60;56.70
15609;DHT22;64278;45.642;13.756;2023-03-31T08:14:51;22.50;56.50
15609;DHT22;64278;45.642;13.756;2023-03-31T08:17:16;22.50;56.50
15609;DHT22;64278;45.642;13.756;2023-03-31T08:19:42;22.60;56.50
15609;DHT22;64278;45.642;13.756;2023-03-31T08:22:08;22.50;56.40
15609;DHT22;64278;45.642;13.756;2023-03-31T08:24:33;22.50;56.30
15609;DHT22;64278;45.642;13.756;2023-03-31T08:26:59;22.50;56.40
15609;DHT22;64278;45.642;13.756;2023-03-31T08:29:24;22.60;56.40
15609;DHT22;64278;45.642;13.756;2023-03-31T08:31:50;22.50;56.40
15609;DHT22;64278;45.642;13.756;2023-03-31T08:34:16;22.50;56.40
15609;DHT22;64278;45.642;13.756;2023-03-31T08:36:42;22.50;56.40
15609;DHT22;64278;45.642;13.756;2023-03-31T08:39:07;22.50;56.40
15609;DHT22;64278;45.642;13.756;2023-03-31T08:41:40;22.50;56.30
15609;DHT22;64278;45.642;13.756;2023-03-31T08:44:12;22.50;56.40
15609;DHT22;64278;45.642;13.756;2023-03-31T08:46:41;22.50;56.30
15609;DHT22;64278;45.642;13.756;2023-03-31T08:49:14;22.50;56.30
15609;DHT22;64278;45.642;13.756;2023-03-31T08:54:40;22.50;56.30
15609;DHT22;64278;45.642;13.756;2023-03-31T08:57:19;22.50;56.30
15609;DHT22;64278;45.642;13.756;2023-03-31T08:59:46;22.50;56.20
15609;DHT22;64278;45.642;13.756;2023-03-31T09:10:30;22.50;56.10
15609;DHT22;64278;45.642;13.756;2023-03-31T09:13:13;22.50;56.10
15609;DHT22;64278;45.642;13.756;2023-03-31T09:16:01;22.50;56.10
15609;DHT22;64278;45.642;13.756;2023-03-31T09:18:36;22.50;56.10
15609;DHT22;64278;45.642;13.756;2023-03-31T09:21:14;22.50;56.00
15609;DHT22;64278;45.642;13.756;2023-03-31T09:23:50;22.50;56.00
15609;DHT22;64278;45.642;13.756;2023-03-31T09:26:36;22.50;56.00
15609;DHT22;64278;45.642;13.756;2023-03-31T09:29:06;22.50;56.00
15609;DHT22;64278;45.642;13.756;2023-03-31T09:31:37;22.50;56.00
15609;DHT22;64278;45.642;13.756;2023-03-31T09:34:11;22.50;56.00
15609;DHT22;64278;45.642;13.756;2023-03-31T09:36:38;22.50;56.00
15609;DHT22;64278;45.642;13.756;2023-03-31T09:39:04;22.50;56.00
15609;DHT22;64278;45.642;13.756;2023-03-31T09:41:29;22.50;56.00
15609;DHT22;64278;45.642;13.756;2023-03-31T09:43:55;22.50;56.00
15609;DHT22;64278;45.642;13.756;2023-03-31T09:49:10;22.50;56.00
15609;DHT22;64278;45.642;13.756;2023-03-31T09:51:41;22.50;56.00
15609;DHT22;64278;45.642;13.756;2023-03-31T09:54:12;22.50;56.00
15609;DHT22;64278;45.642;13.756;2023-03-31T09:59:34;22.50;56.00
15609;DHT22;64278;45.642;13.756;2023-03-31T10:04:48;22.50;56.30
15609;DHT22;64278;45.642;13.756;2023-03-31T10:07:20;22.50;56.60
15609;DHT22;64278;45.642;13.756;2023-03-31T10:09:46;22.50;57.40
15609;DHT22;64278;45.642;13.756;2023-03-31T10:12:16;22.60;60.20
15609;DHT22;64278;45.642;13.756;2023-03-31T10:14:52;22.70;64.90
15609;DHT22;64278;45.642;13.756;2023-03-31T10:17:23;22.70;65.90
15609;DHT22;64278;45.642;13.756;2023-03-31T10:19:55;22.80;67.10
15609;DHT22;64278;45.642;13.756;2023-03-31T10:24:48;22.90;69.60
15609;DHT22;64278;45.642;13.756;2023-03-31T10:27:27;23.00;71.00
15609;DHT22;64278;45.642;13.756;2023-03-31T10:29:55;23.00;71.60
15609;DHT22;64278;45.642;13.756;2023-03-31T10:32:32;23.00;72.40
15609;DHT22;64278;45.642;13.756;2023-03-31T10:35:05;23.10;72.80
15609;DHT22;64278;45.642;13.756;2023-03-31T10:37:31;23.10;73.30
15609;DHT22;64278;45.642;13.756;2023-03-31T10:40:02;23.10;74.20
15609;DHT22;64278;45.642;13.756;2023-03-31T10:42:30;23.20;75.90
15609;DHT22;64278;45.642;13.756;2023-03-31T10:45:13;23.20;76.50
15609;DHT22;64278;45.642;13.756;2023-03-31T10:47:49;23.30;77.40
15609;DHT22;64278;45.642;13.756;2023-03-31T10:50:17;23.30;78.30
15609;DHT22;64278;45.642;13.756;2023-03-31T10:52:47;23.40;78.30
15609;DHT22;64278;45.642;13.756;2023-03-31T10:55:21;23.30;78.10
15609;DHT22;64278;45.642;13.756;2023-03-31T10:58:00;23.30;77.70
15609;DHT22;64278;45.642;13.756;2023-03-31T11:00:46;23.20;76.80
15609;DHT22;64278;45.642;13.756;2023-03-31T11:06:03;23.10;74.90
15609;DHT22;64278;45.642;13.756;2023-03-31T11:11:30;23.10;73.20
15609;DHT22;64278;45.642;13.756;2023-03-31T11:14:17;23.00;72.50
15609;DHT22;64278;45.642;13.756;2023-03-31T11:25:21;23.00;69.80
15609;DHT22;64278;45.642;13.756;2023-03-31T11:28:17;22.90;69.10
15609;DHT22;64278;45.642;13.756;2023-03-31T11:33:40;22.90;68.50
15609;DHT22;64278;45.642;13.756;2023-03-31T11:42:17;22.80;67.00
15609;DHT22;64278;45.642;13.756;2023-03-31T11:44:48;22.80;66.60
15609;DHT22;64278;45.642;13.756;2023-03-31T11:47:31;22.80;66.20
15609;DHT22;64278;45.642;13.756;2023-03-31T11:50:11;22.80;66.20
15609;DHT22;64278;45.642;13.756;2023-03-31T11:53:06;22.80;66.10
15609;DHT22;64278;45.642;13.756;2023-03-31T11:55:36;22.80;65.70
15609;DHT22;64278;45.642;13.756;2023-03-31T11:58:15;22.80;65.30
15609;DHT22;64278;45.642;13.756;2023-03-31T12:03:53;22.80;64.30
15609;DHT22;64278;45.642;13.756;2023-03-31T12:06:23;22.80;62.20
15609;DHT22;64278;45.642;13.756;2023-03-31T12:09:04;22.80;63.40
15609;DHT22;64278;45.642;13.756;2023-03-31T12:14:45;22.70;65.60
15609;DHT22;64278;45.642;13.756;2023-03-31T12:17:14;22.70;64.90
15609;DHT22;64278;45.642;13.756;2023-03-31T12:22:32;22.70;63.80
15609;DHT22;64278;45.642;13.756;2023-03-31T12:24:59;22.60;63.10
15609;DHT22;64278;45.642;13.756;2023-03-31T12:29:57;22.60;60.60
15609;DHT22;64278;45.642;13.756;2023-03-31T12:32:29;22.50;59.40
15609;DHT22;64278;45.642;13.756;2023-03-31T12:37:57;22.50;58.00
15609;DHT22;64278;45.642;13.756;2023-03-31T12:48:41;22.40;57.50
15609;DHT22;64278;45.642;13.756;2023-03-31T12:54:13;22.40;56.80
15609;DHT22;64278;45.642;13.756;2023-03-31T12:59:38;22.40;56.90
15609;DHT22;64278;45.642;13.756;2023-03-31T13:04:37;22.40;56.60
15609;DHT22;64278;45.642;13.756;2023-03-31T13:07:04;22.40;56.70
15609;DHT22;64278;45.642;13.756;2023-03-31T13:09:47;22.40;56.90
15609;DHT22;64278;45.642;13.756;2023-03-31T13:12:19;22.40;57.10
15609;DHT22;64278;45.642;13.756;2023-03-31T13:14:51;22.40;57.20
15609;DHT22;64278;45.642;13.756;2023-03-31T13:17:35;22.40;57.30
15609;DHT22;64278;45.642;13.756;2023-03-31T13:20:39;22.50;57.50
15609;DHT22;64278;45.642;13.756;2023-03-31T13:23:21;22.50;57.80
15609;DHT22;64278;45.642;13.756;2023-03-31T13:25:54;22.50;58.00
15609;DHT22;64278;45.642;13.756;2023-03-31T13:28:41;22.50;58.00
15609;DHT22;64278;45.642;13.756;2023-03-31T13:31:12;22.50;58.10
15609;DHT22;64278;45.642;13.756;2023-03-31T13:33:55;22.50;58.30
15609;DHT22;64278;45.642;13.756;2023-03-31T13:36:35;22.50;58.40
15609;DHT22;64278;45.642;13.756;2023-03-31T13:52:52;22.50;58.70
15609;DHT22;64278;45.642;13.756;2023-03-31T14:06:38;22.50;59.00
15609;DHT22;64278;45.642;13.756;2023-03-31T14:09:13;22.40;58.90
15609;DHT22;64278;45.642;13.756;2023-03-31T14:11:40;22.40;58.90
15609;DHT22;64278;45.642;13.756;2023-03-31T14:16:39;22.50;59.00
15609;DHT22;64278;45.642;13.756;2023-03-31T14:38:27;22.40;58.90
15609;DHT22;64278;45.642;13.756;2023-03-31T14:40:54;22.40;58.90
15609;DHT22;64278;45.642;13.756;2023-03-31T14:43:33;22.40;58.90
15609;DHT22;64278;45.642;13.756;2023-03-31T14:46:05;22.40;58.90
15609;DHT22;64278;45.642;13.756;2023-03-31T14:48:34;22.40;58.90
15609;DHT22;64278;45.642;13.756;2023-03-31T14:51:02;22.50;58.90
15609;DHT22;64278;45.642;13.756;2023-03-31T14:53:28;22.40;58.90
15609;DHT22;64278;45.642;13.756;2023-03-31T14:56:20;22.50;58.90
15609;DHT22;64278;45.642;13.756;2023-03-31T14:58:50;22.40;58.90
15609;DHT22;64278;45.642;13.756;2023-03-31T15:01:22;22.40;58.90
15609;DHT22;64278;45.642;13.756;2023-03-31T15:03:51;22.40;58.80
15609;DHT22;64278;45.642;13.756;2023-03-31T15:06:17;22.40;58.80
15609;DHT22;64278;45.642;13.756;2023-03-31T15:08:43;22.40;58.80
15609;DHT22;64278;45.642;13.756;2023-03-31T15:11:15;22.40;58.70
15609;DHT22;64278;45.642;13.756;2023-03-31T15:13:50;22.40;58.70
15609;DHT22;64278;45.642;13.756;2023-03-31T15:19:26;22.40;58.70
15609;DHT22;64278;45.642;13.756;2023-03-31T15:22:15;22.40;58.70
15609;DHT22;64278;45.642;13.756;2023-03-31T15:24:43;22.40;58.60
15609;DHT22;64278;45.642;13.756;2023-03-31T15:29:51;22.40;58.50
15609;DHT22;64278;45.642;13.756;2023-03-31T15:34:51;22.30;58.40
15609;DHT22;64278;45.642;13.756;2023-03-31T15:37:39;22.30;58.30
15609;DHT22;64278;45.642;13.756;2023-03-31T15:40:18;22.30;58.30
15609;DHT22;64278;45.642;13.756;2023-03-31T15:42:45;22.30;58.20
15609;DHT22;64278;45.642;13.756;2023-03-31T15:48:04;22.30;58.10
15609;DHT22;64278;45.642;13.756;2023-03-31T15:50:31;22.30;58.00
15609;DHT22;64278;45.642;13.756;2023-03-31T15:52:57;22.30;58.00
15609;DHT22;64278;45.642;13.756;2023-03-31T15:55:27;22.30;58.00
15609;DHT22;64278;45.642;13.756;2023-03-31T15:57:56;22.30;57.90
15609;DHT22;64278;45.642;13.756;2023-03-31T16:03:27;22.30;57.80
15609;DHT22;64278;45.642;13.756;2023-03-31T16:05:54;22.30;57.80
15609;DHT22;64278;45.642;13.756;2023-03-31T16:08:28;22.30;57.80
15609;DHT22;64278;45.642;13.756;2023-03-31T16:11:04;22.30;57.80
15609;DHT22;64278;45.642;13.756;2023-03-31T16:13:32;22.20;57.70
15609;DHT22;64278;45.642;13.756;2023-03-31T16:15:59;22.30;57.70
15609;DHT22;64278;45.642;13.756;2023-03-31T16:18:30;22.30;57.70
15609;DHT22;64278;45.642;13.756;2023-03-31T16:20:59;22.20;57.60
15609;DHT22;64278;45.642;13.756;2023-03-31T16:23:28;22.30;57.70
15609;DHT22;64278;45.642;13.756;2023-03-31T16:25:55;22.20;58.20
15609;DHT22;64278;45.642;13.756;2023-03-31T16:28:26;22.20;57.50
15609;DHT22;64278;45.642;13.756;2023-03-31T16:30:53;22.20;57.50
15609;DHT22;64278;45.642;13.756;2023-03-31T16:33:20;22.20;57.50
15609;DHT22;64278;45.642;13.756;2023-03-31T16:35:52;22.20;57.50
15609;DHT22;64278;45.642;13.756;2023-03-31T16:38:22;22.20;57.40
15609;DHT22;64278;45.642;13.756;2023-03-31T16:40:53;22.20;57.40
15609;DHT22;64278;45.642;13.756;2023-03-31T16:45:51;22.10;57.30
15609;DHT22;64278;45.642;13.756;2023-03-31T16:48:18;22.20;57.40
15609;DHT22;64278;45.642;13.756;2023-03-31T16:50:46;22.20;57.40
15609;DHT22;64278;45.642;13.756;2023-03-31T16:53:13;22.10;57.30
15609;DHT22;64278;45.642;13.756;2023-03-31T16:55:40;22.20;57.40
15609;DHT22;64278;45.642;13.756;2023-03-31T16:58:05;22.10;57.30
15609;DHT22;64278;45.642;13.756;2023-03-31T17:00:33;22.20;57.30
15609;DHT22;64278;45.642;13.756;2023-03-31T17:03:05;22.20;57.30
15609;DHT22;64278;45.642;13.756;2023-03-31T17:05:32;22.20;57.30
15609;DHT22;64278;45.642;13.756;2023-03-31T17:08:02;22.20;57.30
15609;DHT22;64278;45.642;13.756;2023-03-31T17:10:27;22.20;57.30
15609;DHT22;64278;45.642;13.756;2023-03-31T17:12:53;22.20;57.30
15609;DHT22;64278;45.642;13.756;2023-03-31T17:15:19;22.20;57.20
15609;DHT22;64278;45.642;13.756;2023-03-31T17:17:45;22.20;57.20
15609;DHT22;64278;45.642;13.756;2023-03-31T17:20:11;22.20;57.20
15609;DHT22;64278;45.642;13.756;2023-03-31T17:22:37;22.10;57.20
15609;DHT22;64278;45.642;13.756;2023-03-31T17:25:03;22.20;57.20
15609;DHT22;64278;45.642;13.756;2023-03-31T17:27:30;22.20;57.20
15609;DHT22;64278;45.642;13.756;2023-03-31T17:29:56;22.20;57.20
15609;DHT22;64278;45.642;13.756;2023-03-31T17:32:22;22.10;57.70
15609;DHT22;64278;45.642;13.756;2023-03-31T17:34:48;22.20;57.10
15609;DHT22;64278;45.642;13.756;2023-03-31T17:37:15;22.20;57.10
15609;DHT22;64278;45.642;13.756;2023-03-31T17:39:42;22.20;57.10
15609;DHT22;64278;45.642;13.756;2023-03-31T17:42:08;22.20;57.10
15609;DHT22;64278;45.642;13.756;2023-03-31T17:44:34;22.10;57.00
15609;DHT22;64278;45.642;13.756;2023-03-31T17:46:59;22.10;57.00
15609;DHT22;64278;45.642;13.756;2023-03-31T17:49:25;22.20;57.20
15609;DHT22;64278;45.642;13.756;2023-03-31T17:51:51;22.20;57.10
15609;DHT22;64278;45.642;13.756;2023-03-31T18:46:31;22.90;58.20
15609;DHT22;64278;45.642;13.756;2023-03-31T18:48:56;22.90;58.20
15609;DHT22;64278;45.642;13.756;2023-03-31T18:51:22;22.90;58.10
15609;DHT22;64278;45.642;13.756;2023-03-31T18:53:48;22.90;58.10
15609;DHT22;64278;45.642;13.756;2023-03-31T18:56:13;23.00;58.00
15609;DHT22;64278;45.642;13.756;2023-03-31T18:58:39;23.00;58.00
15609;DHT22;64278;45.642;13.756;2023-03-31T19:01:05;23.00;58.00
15609;DHT22;64278;45.642;13.756;2023-03-31T19:03:30;23.00;57.90
15609;DHT22;64278;45.642;13.756;2023-03-31T19:06:01;23.00;58.00
15609;DHT22;64278;45.642;13.756;2023-03-31T19:08:29;23.00;58.60
15609;DHT22;64278;45.642;13.756;2023-03-31T19:11:07;23.00;58.00
15609;DHT22;64278;45.642;13.756;2023-03-31T19:13:33;23.00;57.90
15609;DHT22;64278;45.642;13.756;2023-03-31T19:15:59;23.10;57.90
15609;DHT22;64278;45.642;13.756;2023-03-31T19:18:25;23.10;57.90
15609;DHT22;64278;45.642;13.756;2023-03-31T19:20:51;23.10;58.00
15609;DHT22;64278;45.642;13.756;2023-03-31T19:23:17;23.10;57.90
15609;DHT22;64278;45.642;13.756;2023-03-31T19:25:42;23.10;57.90
15609;DHT22;64278;45.642;13.756;2023-03-31T19:28:14;23.10;57.80
15609;DHT22;64278;45.642;13.756;2023-03-31T19:30:41;23.10;57.80
15609;DHT22;64278;45.642;13.756;2023-03-31T19:33:06;23.10;57.80
15609;DHT22;64278;45.642;13.756;2023-03-31T19:35:32;23.10;57.80
15609;DHT22;64278;45.642;13.756;2023-03-31T19:37:58;23.10;57.80
15609;DHT22;64278;45.642;13.756;2023-03-31T19:40:24;23.10;57.80